sensor_id;sensor_type;location;lat;lon;timestamp;P1;durP1;ratioP1;P2;durP2;ratioP2
45848;SDS011;31567;54.600;9.842;2023-11-19T00:02:31;8.85;;;5.80;;
45848;SDS011;31567;54.600;9.842;2023-11-19T00:06:11;6.22;;;5.47;;
45848;SDS011;31567;54.600;9.842;2023-11-19T00:09:50;9.98;;;5.82;;
45848;SDS011;31567;54.600;9.842;2023-11-19T00:13:30;11.05;;;7.00;;
45848;SDS011;31567;54.600;9.842;2023-11-19T00:17:10;8.20;;;6.00;;
45848;SDS011;31567;54.600;9.842;2023-11-19T00:20:49;7.63;;;6.10;;
45848;SDS011;31567;54.600;9.842;2023-11-19T00:24:29;8.30;;;5.63;;
45848;SDS011;31567;54.600;9.842;2023-11-19T00:28:09;7.03;;;5.93;;
45848;SDS011;31567;54.600;9.842;2023-11-19T00:31:49;5.70;;;5.10;;
45848;SDS011;31567;54.600;9.842;2023-11-19T00:35:28;6.25;;;5.65;;
45848;SDS011;31567;54.600;9.842;2023-11-19T00:39:08;7.10;;;4.32;;
45848;SDS011;31567;54.600;9.842;2023-11-19T00:42:47;5.63;;;4.80;;
45848;SDS011;31567;54.600;9.842;2023-11-19T00:46:27;8.30;;;5.38;;
45848;SDS011;31567;54.600;9.842;2023-11-19T00:50:07;6.25;;;4.95;;
45848;SDS011;31567;54.600;9.842;2023-11-19T00:53:48;7.47;;;5.70;;
45848;SDS011;31567;54.600;9.842;2023-11-19T00:57:28;8.85;;;6.38;;
45848;SDS011;31567;54.600;9.842;2023-11-19T01:01:07;8.88;;;6.43;;
45848;SDS011;31567;54.600;9.842;2023-11-19T01:04:47;6.35;;;4.40;;
45848;SDS011;31567;54.600;9.842;2023-11-19T01:08:26;6.82;;;5.75;;
45848;SDS011;31567;54.600;9.842;2023-11-19T01:12:06;7.50;;;5.22;;
45848;SDS011;31567;54.600;9.842;2023-11-19T01:15:46;6.05;;;5.45;;
45848;SDS011;31567;54.600;9.842;2023-11-19T01:19:26;6.82;;;5.03;;
45848;SDS011;31567;54.600;9.842;2023-11-19T01:23:07;6.30;;;5.53;;
45848;SDS011;31567;54.600;9.842;2023-11-19T01:26:47;5.78;;;5.13;;
45848;SDS011;31567;54.600;9.842;2023-11-19T01:30:26;7.35;;;5.80;;
45848;SDS011;31567;54.600;9.842;2023-11-19T01:34:06;7.50;;;5.80;;
45848;SDS011;31567;54.600;9.842;2023-11-19T01:37:45;5.38;;;4.47;;
45848;SDS011;31567;54.600;9.842;2023-11-19T01:41:25;7.47;;;5.65;;
45848;SDS011;31567;54.600;9.842;2023-11-19T01:45:05;7.85;;;4.55;;
45848;SDS011;31567;54.600;9.842;2023-11-19T01:48:48;6.18;;;5.18;;
45848;SDS011;31567;54.600;9.842;2023-11-19T01:52:28;5.93;;;4.88;;
45848;SDS011;31567;54.600;9.842;2023-11-19T01:56:08;7.90;;;5.43;;
45848;SDS011;31567;54.600;9.842;2023-11-19T01:59:49;7.85;;;5.20;;
45848;SDS011;31567;54.600;9.842;2023-11-19T02:03:31;8.48;;;4.60;;
45848;SDS011;31567;54.600;9.842;2023-11-19T02:07:11;5.13;;;4.63;;
45848;SDS011;31567;54.600;9.842;2023-11-19T02:10:53;8.52;;;4.65;;
45848;SDS011;31567;54.600;9.842;2023-11-19T02:14:36;7.35;;;4.70;;
45848;SDS011;31567;54.600;9.842;2023-11-19T02:18:23;7.32;;;4.45;;
45848;SDS011;31567;54.600;9.842;2023-11-19T02:22:06;7.18;;;4.03;;
45848;SDS011;31567;54.600;9.842;2023-11-19T02:26:28;3.92;;;3.53;;
45848;SDS011;31567;54.600;9.842;2023-11-19T02:30:03;3.95;;;3.53;;
45848;SDS011;31567;54.600;9.842;2023-11-19T02:33:47;6.65;;;3.55;;
45848;SDS011;31567;54.600;9.842;2023-11-19T02:37:28;3.83;;;3.25;;
45848;SDS011;31567;54.600;9.842;2023-11-19T02:41:08;3.60;;;2.60;;
45848;SDS011;31567;54.600;9.842;2023-11-19T02:44:48;8.02;;;2.55;;
45848;SDS011;31567;54.600;9.842;2023-11-19T02:48:28;3.60;;;1.98;;
45848;SDS011;31567;54.600;9.842;2023-11-19T02:52:07;2.05;;;1.85;;
45848;SDS011;31567;54.600;9.842;2023-11-19T02:55:49;2.95;;;1.77;;
45848;SDS011;31567;54.600;9.842;2023-11-19T02:59:29;1.80;;;1.70;;
45848;SDS011;31567;54.600;9.842;2023-11-19T03:03:17;1.80;;;1.67;;
45848;SDS011;31567;54.600;9.842;2023-11-19T03:07:00;1.65;;;1.45;;
45848;SDS011;31567;54.600;9.842;2023-11-19T03:10:40;1.88;;;1.67;;
45848;SDS011;31567;54.600;9.842;2023-11-19T03:14:20;1.40;;;1.30;;
45848;SDS011;31567;54.600;9.842;2023-11-19T03:18:01;1.80;;;0.82;;
45848;SDS011;31567;54.600;9.842;2023-11-19T03:21:41;1.13;;;0.68;;
45848;SDS011;31567;54.600;9.842;2023-11-19T03:25:21;0.77;;;0.77;;
45848;SDS011;31567;54.600;9.842;2023-11-19T03:29:00;1.20;;;0.75;;
45848;SDS011;31567;54.600;9.842;2023-11-19T03:32:40;0.73;;;0.73;;
45848;SDS011;31567;54.600;9.842;2023-11-19T03:36:20;0.60;;;0.60;;
45848;SDS011;31567;54.600;9.842;2023-11-19T03:39:59;1.02;;;1.00;;
45848;SDS011;31567;54.600;9.842;2023-11-19T03:43:39;4.32;;;0.65;;
45848;SDS011;31567;54.600;9.842;2023-11-19T03:47:20;7.28;;;1.10;;
45848;SDS011;31567;54.600;9.842;2023-11-19T03:50:59;4.07;;;1.15;;
45848;SDS011;31567;54.600;9.842;2023-11-19T03:54:39;1.13;;;0.85;;
45848;SDS011;31567;54.600;9.842;2023-11-19T03:58:18;9.82;;;1.38;;
45848;SDS011;31567;54.600;9.842;2023-11-19T04:01:58;5.65;;;1.10;;
45848;SDS011;31567;54.600;9.842;2023-11-19T04:05:39;12.60;;;1.50;;
45848;SDS011;31567;54.600;9.842;2023-11-19T04:09:19;6.40;;;0.98;;
45848;SDS011;31567;54.600;9.842;2023-11-19T04:12:58;1.33;;;0.70;;
45848;SDS011;31567;54.600;9.842;2023-11-19T04:16:38;1.27;;;0.60;;
45848;SDS011;31567;54.600;9.842;2023-11-19T04:20:17;2.67;;;0.60;;
45848;SDS011;31567;54.600;9.842;2023-11-19T04:23:57;4.13;;;0.70;;
45848;SDS011;31567;54.600;9.842;2023-11-19T04:27:37;3.80;;;0.90;;
45848;SDS011;31567;54.600;9.842;2023-11-19T04:31:16;7.28;;;0.50;;
45848;SDS011;31567;54.600;9.842;2023-11-19T04:34:56;3.60;;;0.82;;
45848;SDS011;31567;54.600;9.842;2023-11-19T04:38:35;1.50;;;0.40;;
45848;SDS011;31567;54.600;9.842;2023-11-19T04:42:17;7.22;;;0.70;;
45848;SDS011;31567;54.600;9.842;2023-11-19T04:45:57;1.08;;;0.47;;
45848;SDS011;31567;54.600;9.842;2023-11-19T04:49:39;2.38;;;0.30;;
45848;SDS011;31567;54.600;9.842;2023-11-19T04:53:21;0.68;;;0.40;;
45848;SDS011;31567;54.600;9.842;2023-11-19T04:57:01;0.40;;;0.40;;
45848;SDS011;31567;54.600;9.842;2023-11-19T05:00:40;0.32;;;0.32;;
45848;SDS011;31567;54.600;9.842;2023-11-19T05:04:20;0.30;;;0.30;;
45848;SDS011;31567;54.600;9.842;2023-11-19T05:08:00;0.63;;;0.43;;
45848;SDS011;31567;54.600;9.842;2023-11-19T05:11:40;2.00;;;0.40;;
45848;SDS011;31567;54.600;9.842;2023-11-19T05:15:19;2.28;;;0.40;;
45848;SDS011;31567;54.600;9.842;2023-11-19T05:18:59;0.50;;;0.50;;
45848;SDS011;31567;54.600;9.842;2023-11-19T05:22:39;0.57;;;0.50;;
45848;SDS011;31567;54.600;9.842;2023-11-19T05:26:20;2.90;;;0.50;;
45848;SDS011;31567;54.600;9.842;2023-11-19T05:30:01;2.40;;;0.60;;
45848;SDS011;31567;54.600;9.842;2023-11-19T05:33:41;3.00;;;0.70;;
45848;SDS011;31567;54.600;9.842;2023-11-19T05:37:21;1.55;;;0.57;;
45848;SDS011;31567;54.600;9.842;2023-11-19T05:41:00;1.02;;;0.80;;
45848;SDS011;31567;54.600;9.842;2023-11-19T05:44:40;2.10;;;0.65;;
45848;SDS011;31567;54.600;9.842;2023-11-19T05:48:20;0.93;;;0.93;;
45848;SDS011;31567;54.600;9.842;2023-11-19T05:51:59;2.47;;;0.90;;
45848;SDS011;31567;54.600;9.842;2023-11-19T05:55:40;0.95;;;0.95;;
45848;SDS011;31567;54.600;9.842;2023-11-19T05:59:27;0.90;;;0.90;;
45848;SDS011;31567;54.600;9.842;2023-11-19T06:03:09;0.75;;;0.75;;
45848;SDS011;31567;54.600;9.842;2023-11-19T06:06:48;1.73;;;0.93;;
45848;SDS011;31567;54.600;9.842;2023-11-19T06:10:28;1.70;;;1.02;;
45848;SDS011;31567;54.600;9.842;2023-11-19T06:14:10;1.42;;;1.33;;
45848;SDS011;31567;54.600;9.842;2023-11-19T06:17:50;4.63;;;2.00;;
45848;SDS011;31567;54.600;9.842;2023-11-19T06:21:29;3.88;;;2.28;;
45848;SDS011;31567;54.600;9.842;2023-11-19T06:25:09;4.70;;;2.40;;
45848;SDS011;31567;54.600;9.842;2023-11-19T06:28:50;3.42;;;2.53;;
45848;SDS011;31567;54.600;9.842;2023-11-19T06:32:29;3.50;;;2.72;;
45848;SDS011;31567;54.600;9.842;2023-11-19T06:36:09;7.28;;;3.28;;
45848;SDS011;31567;54.600;9.842;2023-11-19T06:39:49;4.13;;;3.40;;
45848;SDS011;31567;54.600;9.842;2023-11-19T06:43:28;9.55;;;4.28;;
45848;SDS011;31567;54.600;9.842;2023-11-19T06:47:08;8.80;;;5.18;;
45848;SDS011;31567;54.600;9.842;2023-11-19T06:50:47;9.60;;;4.82;;
45848;SDS011;31567;54.600;9.842;2023-11-19T06:54:27;12.77;;;5.25;;
45848;SDS011;31567;54.600;9.842;2023-11-19T06:58:06;8.25;;;4.72;;
45848;SDS011;31567;54.600;9.842;2023-11-19T07:01:46;11.55;;;5.28;;
45848;SDS011;31567;54.600;9.842;2023-11-19T07:05:25;15.70;;;6.05;;
45848;SDS011;31567;54.600;9.842;2023-11-19T07:09:05;11.57;;;6.18;;
45848;SDS011;31567;54.600;9.842;2023-11-19T07:12:48;14.05;;;6.30;;
45848;SDS011;31567;54.600;9.842;2023-11-19T07:16:29;15.20;;;6.88;;
45848;SDS011;31567;54.600;9.842;2023-11-19T07:20:09;10.60;;;6.70;;
45848;SDS011;31567;54.600;9.842;2023-11-19T07:23:52;11.38;;;6.30;;
45848;SDS011;31567;54.600;9.842;2023-11-19T07:27:32;14.55;;;6.80;;
45848;SDS011;31567;54.600;9.842;2023-11-19T07:31:12;9.50;;;6.25;;
45848;SDS011;31567;54.600;9.842;2023-11-19T07:34:52;7.38;;;6.10;;
45848;SDS011;31567;54.600;9.842;2023-11-19T07:38:32;10.02;;;6.15;;
45848;SDS011;31567;54.600;9.842;2023-11-19T07:42:11;14.75;;;6.45;;
45848;SDS011;31567;54.600;9.842;2023-11-19T07:45:51;12.07;;;5.93;;
45848;SDS011;31567;54.600;9.842;2023-11-19T07:49:30;14.43;;;6.47;;
45848;SDS011;31567;54.600;9.842;2023-11-19T07:53:10;15.18;;;6.50;;
45848;SDS011;31567;54.600;9.842;2023-11-19T07:56:51;16.60;;;6.65;;
45848;SDS011;31567;54.600;9.842;2023-11-19T08:00:31;20.40;;;7.53;;
45848;SDS011;31567;54.600;9.842;2023-11-19T08:04:10;21.23;;;6.85;;
45848;SDS011;31567;54.600;9.842;2023-11-19T08:07:50;24.15;;;8.60;;
45848;SDS011;31567;54.600;9.842;2023-11-19T08:11:32;31.42;;;8.02;;
45848;SDS011;31567;54.600;9.842;2023-11-19T08:15:12;26.92;;;7.90;;
45848;SDS011;31567;54.600;9.842;2023-11-19T08:18:52;25.80;;;8.57;;
45848;SDS011;31567;54.600;9.842;2023-11-19T08:22:31;22.55;;;7.63;;
45848;SDS011;31567;54.600;9.842;2023-11-19T08:26:11;28.65;;;8.15;;
45848;SDS011;31567;54.600;9.842;2023-11-19T08:29:50;27.60;;;8.02;;
45848;SDS011;31567;54.600;9.842;2023-11-19T08:33:30;28.92;;;8.15;;
45848;SDS011;31567;54.600;9.842;2023-11-19T08:37:10;24.75;;;8.25;;
45848;SDS011;31567;54.600;9.842;2023-11-19T08:40:50;31.88;;;8.32;;
45848;SDS011;31567;54.600;9.842;2023-11-19T08:44:31;31.55;;;8.88;;
45848;SDS011;31567;54.600;9.842;2023-11-19T08:48:10;41.90;;;8.10;;
45848;SDS011;31567;54.600;9.842;2023-11-19T08:51:50;38.72;;;7.78;;
45848;SDS011;31567;54.600;9.842;2023-11-19T08:55:29;43.28;;;9.40;;
45848;SDS011;31567;54.600;9.842;2023-11-19T08:59:10;41.05;;;7.57;;
45848;SDS011;31567;54.600;9.842;2023-11-19T09:02:50;41.05;;;7.18;;
45848;SDS011;31567;54.600;9.842;2023-11-19T09:06:29;49.00;;;7.60;;
45848;SDS011;31567;54.600;9.842;2023-11-19T09:10:09;51.30;;;8.65;;
45848;SDS011;31567;54.600;9.842;2023-11-19T09:13:50;43.80;;;7.68;;
45848;SDS011;31567;54.600;9.842;2023-11-19T09:17:30;41.03;;;6.95;;
45848;SDS011;31567;54.600;9.842;2023-11-19T09:21:12;54.80;;;8.10;;
45848;SDS011;31567;54.600;9.842;2023-11-19T09:24:52;51.05;;;8.93;;
45848;SDS011;31567;54.600;9.842;2023-11-19T09:28:31;51.05;;;8.45;;
45848;SDS011;31567;54.600;9.842;2023-11-19T09:32:11;50.67;;;7.05;;
45848;SDS011;31567;54.600;9.842;2023-11-19T09:35:50;53.97;;;9.88;;
45848;SDS011;31567;54.600;9.842;2023-11-19T09:39:30;53.17;;;7.72;;
45848;SDS011;31567;54.600;9.842;2023-11-19T09:43:09;53.47;;;9.25;;
45848;SDS011;31567;54.600;9.842;2023-11-19T09:46:50;51.50;;;8.02;;
45848;SDS011;31567;54.600;9.842;2023-11-19T09:50:31;61.08;;;9.05;;
45848;SDS011;31567;54.600;9.842;2023-11-19T09:54:10;58.90;;;8.40;;
45848;SDS011;31567;54.600;9.842;2023-11-19T09:57:52;48.67;;;7.38;;
45848;SDS011;31567;54.600;9.842;2023-11-19T10:01:32;56.72;;;7.90;;
45848;SDS011;31567;54.600;9.842;2023-11-19T10:05:13;43.85;;;7.93;;
45848;SDS011;31567;54.600;9.842;2023-11-19T10:08:53;52.85;;;7.38;;
45848;SDS011;31567;54.600;9.842;2023-11-19T10:12:34;49.85;;;7.85;;
45848;SDS011;31567;54.600;9.842;2023-11-19T10:16:14;51.15;;;10.18;;
45848;SDS011;31567;54.600;9.842;2023-11-19T10:19:54;50.38;;;8.40;;
45848;SDS011;31567;54.600;9.842;2023-11-19T10:23:49;32.00;;;7.07;;
45848;SDS011;31567;54.600;9.842;2023-11-19T10:27:34;46.25;;;7.30;;
45848;SDS011;31567;54.600;9.842;2023-11-19T10:31:14;42.95;;;7.60;;
45848;SDS011;31567;54.600;9.842;2023-11-19T10:35:06;47.45;;;8.00;;
45848;SDS011;31567;54.600;9.842;2023-11-19T10:38:56;44.55;;;8.70;;
45848;SDS011;31567;54.600;9.842;2023-11-19T10:42:36;50.13;;;8.10;;
45848;SDS011;31567;54.600;9.842;2023-11-19T10:46:15;43.05;;;8.50;;
45848;SDS011;31567;54.600;9.842;2023-11-19T10:49:59;44.95;;;7.53;;
45848;SDS011;31567;54.600;9.842;2023-11-19T10:53:39;43.05;;;8.43;;
45848;SDS011;31567;54.600;9.842;2023-11-19T10:57:22;35.90;;;6.95;;
45848;SDS011;31567;54.600;9.842;2023-11-19T11:01:09;34.70;;;6.05;;
45848;SDS011;31567;54.600;9.842;2023-11-19T11:05:02;36.08;;;5.90;;
45848;SDS011;31567;54.600;9.842;2023-11-19T11:08:43;45.15;;;7.05;;
45848;SDS011;31567;54.600;9.842;2023-11-19T11:12:25;40.33;;;7.40;;
45848;SDS011;31567;54.600;9.842;2023-11-19T11:16:05;34.20;;;6.70;;
45848;SDS011;31567;54.600;9.842;2023-11-19T11:19:46;43.25;;;7.70;;
45848;SDS011;31567;54.600;9.842;2023-11-19T11:31:49;35.67;;;5.78;;
45848;SDS011;31567;54.600;9.842;2023-11-19T11:35:37;43.25;;;5.93;;
45848;SDS011;31567;54.600;9.842;2023-11-19T11:39:30;44.33;;;7.57;;
45848;SDS011;31567;54.600;9.842;2023-11-19T11:47:24;32.60;;;6.88;;
45848;SDS011;31567;54.600;9.842;2023-11-19T11:51:04;41.80;;;6.75;;
45848;SDS011;31567;54.600;9.842;2023-11-19T11:54:43;40.72;;;8.73;;
45848;SDS011;31567;54.600;9.842;2023-11-19T11:58:28;34.97;;;6.30;;
45848;SDS011;31567;54.600;9.842;2023-11-19T12:02:12;33.60;;;7.10;;
45848;SDS011;31567;54.600;9.842;2023-11-19T12:05:57;35.03;;;6.90;;
45848;SDS011;31567;54.600;9.842;2023-11-19T12:09:39;43.05;;;6.50;;
45848;SDS011;31567;54.600;9.842;2023-11-19T12:13:43;41.53;;;8.00;;
45848;SDS011;31567;54.600;9.842;2023-11-19T12:17:38;42.05;;;8.05;;
45848;SDS011;31567;54.600;9.842;2023-11-19T12:21:29;46.13;;;7.78;;
45848;SDS011;31567;54.600;9.842;2023-11-19T12:25:10;45.10;;;7.35;;
45848;SDS011;31567;54.600;9.842;2023-11-19T12:28:57;39.53;;;7.88;;
45848;SDS011;31567;54.600;9.842;2023-11-19T12:32:44;36.17;;;6.85;;
45848;SDS011;31567;54.600;9.842;2023-11-19T12:36:24;41.78;;;7.05;;
45848;SDS011;31567;54.600;9.842;2023-11-19T12:40:10;47.35;;;7.15;;
45848;SDS011;31567;54.600;9.842;2023-11-19T12:43:51;42.20;;;8.98;;
45848;SDS011;31567;54.600;9.842;2023-11-19T12:47:31;36.42;;;7.07;;
45848;SDS011;31567;54.600;9.842;2023-11-19T12:51:11;42.30;;;7.05;;
45848;SDS011;31567;54.600;9.842;2023-11-19T12:54:51;36.45;;;7.13;;
45848;SDS011;31567;54.600;9.842;2023-11-19T12:58:31;46.20;;;7.65;;
45848;SDS011;31567;54.600;9.842;2023-11-19T13:02:11;41.13;;;7.10;;
45848;SDS011;31567;54.600;9.842;2023-11-19T13:05:51;37.80;;;7.10;;
45848;SDS011;31567;54.600;9.842;2023-11-19T13:09:41;42.13;;;7.25;;
45848;SDS011;31567;54.600;9.842;2023-11-19T13:13:20;41.28;;;7.85;;
45848;SDS011;31567;54.600;9.842;2023-11-19T13:17:00;36.92;;;6.40;;
45848;SDS011;31567;54.600;9.842;2023-11-19T13:20:40;42.15;;;6.53;;
45848;SDS011;31567;54.600;9.842;2023-11-19T13:24:19;40.38;;;7.47;;
45848;SDS011;31567;54.600;9.842;2023-11-19T13:27:59;40.20;;;7.20;;
45848;SDS011;31567;54.600;9.842;2023-11-19T13:31:39;29.73;;;5.70;;
45848;SDS011;31567;54.600;9.842;2023-11-19T13:35:18;32.33;;;5.65;;
45848;SDS011;31567;54.600;9.842;2023-11-19T13:38:58;35.13;;;5.85;;
45848;SDS011;31567;54.600;9.842;2023-11-19T13:42:38;44.03;;;7.60;;
45848;SDS011;31567;54.600;9.842;2023-11-19T13:46:19;28.27;;;5.93;;
45848;SDS011;31567;54.600;9.842;2023-11-19T13:49:59;35.58;;;6.55;;
45848;SDS011;31567;54.600;9.842;2023-11-19T13:53:38;42.40;;;7.35;;
45848;SDS011;31567;54.600;9.842;2023-11-19T13:57:18;34.30;;;6.18;;
45848;SDS011;31567;54.600;9.842;2023-11-19T14:00:58;42.83;;;6.28;;
45848;SDS011;31567;54.600;9.842;2023-11-19T14:04:37;42.47;;;6.25;;
45848;SDS011;31567;54.600;9.842;2023-11-19T14:08:17;38.22;;;7.43;;
45848;SDS011;31567;54.600;9.842;2023-11-19T14:11:56;35.33;;;6.25;;
45848;SDS011;31567;54.600;9.842;2023-11-19T14:15:36;41.70;;;6.72;;
45848;SDS011;31567;54.600;9.842;2023-11-19T14:19:16;35.80;;;6.22;;
45848;SDS011;31567;54.600;9.842;2023-11-19T14:22:55;38.00;;;7.18;;
45848;SDS011;31567;54.600;9.842;2023-11-19T14:26:35;43.08;;;7.68;;
45848;SDS011;31567;54.600;9.842;2023-11-19T14:30:15;41.83;;;6.45;;
45848;SDS011;31567;54.600;9.842;2023-11-19T14:33:55;38.92;;;7.80;;
45848;SDS011;31567;54.600;9.842;2023-11-19T14:37:34;39.03;;;7.28;;
45848;SDS011;31567;54.600;9.842;2023-11-19T14:41:14;51.33;;;8.15;;
45848;SDS011;31567;54.600;9.842;2023-11-19T14:44:53;49.20;;;7.55;;
45848;SDS011;31567;54.600;9.842;2023-11-19T14:48:33;43.40;;;7.72;;
45848;SDS011;31567;54.600;9.842;2023-11-19T14:52:12;40.13;;;8.68;;
45848;SDS011;31567;54.600;9.842;2023-11-19T14:55:52;49.10;;;7.00;;
45848;SDS011;31567;54.600;9.842;2023-11-19T14:59:34;46.13;;;7.53;;
45848;SDS011;31567;54.600;9.842;2023-11-19T15:03:13;49.50;;;8.27;;
45848;SDS011;31567;54.600;9.842;2023-11-19T15:06:58;52.60;;;9.80;;
45848;SDS011;31567;54.600;9.842;2023-11-19T15:10:38;41.47;;;7.10;;
45848;SDS011;31567;54.600;9.842;2023-11-19T15:14:18;40.55;;;7.68;;
45848;SDS011;31567;54.600;9.842;2023-11-19T15:18:00;50.90;;;8.43;;
45848;SDS011;31567;54.600;9.842;2023-11-19T15:21:40;46.17;;;7.63;;
45848;SDS011;31567;54.600;9.842;2023-11-19T15:25:20;49.13;;;7.97;;
45848;SDS011;31567;54.600;9.842;2023-11-19T15:29:02;54.42;;;8.68;;
45848;SDS011;31567;54.600;9.842;2023-11-19T15:32:42;48.47;;;7.25;;
45848;SDS011;31567;54.600;9.842;2023-11-19T15:36:22;39.75;;;8.85;;
45848;SDS011;31567;54.600;9.842;2023-11-19T15:40:01;43.05;;;6.45;;
45848;SDS011;31567;54.600;9.842;2023-11-19T15:43:43;44.70;;;6.28;;
45848;SDS011;31567;54.600;9.842;2023-11-19T15:47:23;39.50;;;6.13;;
45848;SDS011;31567;54.600;9.842;2023-11-19T15:51:03;45.95;;;7.03;;
45848;SDS011;31567;54.600;9.842;2023-11-19T15:54:43;32.65;;;7.05;;
45848;SDS011;31567;54.600;9.842;2023-11-19T15:58:25;41.17;;;6.80;;
45848;SDS011;31567;54.600;9.842;2023-11-19T16:02:04;39.38;;;7.30;;
45848;SDS011;31567;54.600;9.842;2023-11-19T16:05:44;40.97;;;7.63;;
45848;SDS011;31567;54.600;9.842;2023-11-19T16:09:23;43.22;;;6.75;;
45848;SDS011;31567;54.600;9.842;2023-11-19T16:13:06;37.42;;;6.93;;
45848;SDS011;31567;54.600;9.842;2023-11-19T16:16:49;43.22;;;7.03;;
45848;SDS011;31567;54.600;9.842;2023-11-19T16:20:29;45.00;;;7.63;;
45848;SDS011;31567;54.600;9.842;2023-11-19T16:24:12;40.85;;;6.28;;
45848;SDS011;31567;54.600;9.842;2023-11-19T16:27:52;48.97;;;7.47;;
45848;SDS011;31567;54.600;9.842;2023-11-19T16:31:32;41.05;;;6.18;;
45848;SDS011;31567;54.600;9.842;2023-11-19T16:35:12;41.92;;;6.65;;
45848;SDS011;31567;54.600;9.842;2023-11-19T16:38:52;35.78;;;6.63;;
45848;SDS011;31567;54.600;9.842;2023-11-19T16:42:31;38.38;;;7.05;;
45848;SDS011;31567;54.600;9.842;2023-11-19T16:46:11;36.00;;;6.35;;
45848;SDS011;31567;54.600;9.842;2023-11-19T16:49:50;34.47;;;6.78;;
45848;SDS011;31567;54.600;9.842;2023-11-19T16:53:30;38.92;;;6.00;;
45848;SDS011;31567;54.600;9.842;2023-11-19T16:57:10;42.63;;;7.15;;
45848;SDS011;31567;54.600;9.842;2023-11-19T17:00:49;50.55;;;8.60;;
45848;SDS011;31567;54.600;9.842;2023-11-19T17:04:29;37.30;;;6.57;;
45848;SDS011;31567;54.600;9.842;2023-11-19T17:08:08;36.90;;;7.03;;
45848;SDS011;31567;54.600;9.842;2023-11-19T17:11:48;49.30;;;6.80;;
45848;SDS011;31567;54.600;9.842;2023-11-19T17:15:28;38.08;;;6.47;;
45848;SDS011;31567;54.600;9.842;2023-11-19T17:19:07;41.35;;;6.30;;
45848;SDS011;31567;54.600;9.842;2023-11-19T17:22:47;44.17;;;6.00;;
45848;SDS011;31567;54.600;9.842;2023-11-19T17:26:28;38.20;;;6.43;;
45848;SDS011;31567;54.600;9.842;2023-11-19T17:30:07;43.33;;;6.78;;
45848;SDS011;31567;54.600;9.842;2023-11-19T17:33:48;45.20;;;6.43;;
45848;SDS011;31567;54.600;9.842;2023-11-19T17:37:27;35.47;;;6.18;;
45848;SDS011;31567;54.600;9.842;2023-11-19T17:41:07;35.40;;;5.80;;
45848;SDS011;31567;54.600;9.842;2023-11-19T17:44:47;35.97;;;5.80;;
45848;SDS011;31567;54.600;9.842;2023-11-19T17:48:27;41.97;;;7.07;;
45848;SDS011;31567;54.600;9.842;2023-11-19T17:52:06;48.05;;;6.72;;
45848;SDS011;31567;54.600;9.842;2023-11-19T17:55:48;47.97;;;7.45;;
45848;SDS011;31567;54.600;9.842;2023-11-19T17:59:28;45.95;;;6.65;;
45848;SDS011;31567;54.600;9.842;2023-11-19T18:03:08;49.72;;;6.65;;
45848;SDS011;31567;54.600;9.842;2023-11-19T18:06:48;44.17;;;6.57;;
45848;SDS011;31567;54.600;9.842;2023-11-19T18:10:27;45.92;;;7.82;;
45848;SDS011;31567;54.600;9.842;2023-11-19T18:14:07;43.47;;;6.75;;
45848;SDS011;31567;54.600;9.842;2023-11-19T18:17:48;39.08;;;5.97;;
45848;SDS011;31567;54.600;9.842;2023-11-19T18:21:27;45.33;;;6.20;;
45848;SDS011;31567;54.600;9.842;2023-11-19T18:25:07;39.05;;;6.75;;
45848;SDS011;31567;54.600;9.842;2023-11-19T18:28:50;42.55;;;6.50;;
45848;SDS011;31567;54.600;9.842;2023-11-19T18:32:31;32.05;;;6.13;;
45848;SDS011;31567;54.600;9.842;2023-11-19T18:36:10;38.80;;;7.07;;
45848;SDS011;31567;54.600;9.842;2023-11-19T18:39:50;38.17;;;6.97;;
45848;SDS011;31567;54.600;9.842;2023-11-19T18:43:29;39.53;;;6.95;;
45848;SDS011;31567;54.600;9.842;2023-11-19T18:47:09;37.65;;;5.85;;
45848;SDS011;31567;54.600;9.842;2023-11-19T18:50:48;46.38;;;6.45;;
45848;SDS011;31567;54.600;9.842;2023-11-19T18:54:28;41.70;;;6.60;;
45848;SDS011;31567;54.600;9.842;2023-11-19T18:58:08;47.85;;;7.07;;
45848;SDS011;31567;54.600;9.842;2023-11-19T19:01:48;49.80;;;7.88;;
45848;SDS011;31567;54.600;9.842;2023-11-19T19:05:27;45.28;;;6.63;;
45848;SDS011;31567;54.600;9.842;2023-11-19T19:09:07;41.63;;;6.50;;
45848;SDS011;31567;54.600;9.842;2023-11-19T19:12:47;39.42;;;6.18;;
45848;SDS011;31567;54.600;9.842;2023-11-19T19:16:26;41.70;;;6.57;;
45848;SDS011;31567;54.600;9.842;2023-11-19T19:20:06;42.70;;;6.65;;
45848;SDS011;31567;54.600;9.842;2023-11-19T19:23:46;48.33;;;7.50;;
45848;SDS011;31567;54.600;9.842;2023-11-19T19:27:26;40.83;;;6.38;;
45848;SDS011;31567;54.600;9.842;2023-11-19T19:31:05;34.20;;;5.78;;
45848;SDS011;31567;54.600;9.842;2023-11-19T19:34:45;44.33;;;7.45;;
45848;SDS011;31567;54.600;9.842;2023-11-19T19:38:25;43.70;;;6.57;;
45848;SDS011;31567;54.600;9.842;2023-11-19T19:42:04;47.10;;;6.47;;
45848;SDS011;31567;54.600;9.842;2023-11-19T19:45:44;46.33;;;7.22;;
45848;SDS011;31567;54.600;9.842;2023-11-19T19:49:23;46.58;;;7.40;;
45848;SDS011;31567;54.600;9.842;2023-11-19T19:53:05;57.05;;;6.80;;
45848;SDS011;31567;54.600;9.842;2023-11-19T19:56:44;38.10;;;6.05;;
45848;SDS011;31567;54.600;9.842;2023-11-19T20:00:24;34.03;;;5.75;;
45848;SDS011;31567;54.600;9.842;2023-11-19T20:04:04;34.63;;;5.65;;
45848;SDS011;31567;54.600;9.842;2023-11-19T20:07:44;38.30;;;7.55;;
45848;SDS011;31567;54.600;9.842;2023-11-19T20:11:23;31.10;;;4.88;;
45848;SDS011;31567;54.600;9.842;2023-11-19T20:15:05;38.28;;;6.30;;
45848;SDS011;31567;54.600;9.842;2023-11-19T20:18:46;40.90;;;6.03;;
45848;SDS011;31567;54.600;9.842;2023-11-19T20:22:26;40.03;;;6.80;;
45848;SDS011;31567;54.600;9.842;2023-11-19T20:26:06;36.45;;;6.43;;
45848;SDS011;31567;54.600;9.842;2023-11-19T20:29:48;56.35;;;7.57;;
45848;SDS011;31567;54.600;9.842;2023-11-19T20:33:28;37.53;;;6.95;;
45848;SDS011;31567;54.600;9.842;2023-11-19T20:37:08;42.92;;;6.65;;
45848;SDS011;31567;54.600;9.842;2023-11-19T20:40:48;39.35;;;6.38;;
45848;SDS011;31567;54.600;9.842;2023-11-19T20:44:28;50.55;;;8.23;;
45848;SDS011;31567;54.600;9.842;2023-11-19T20:48:08;36.08;;;6.05;;
45848;SDS011;31567;54.600;9.842;2023-11-19T20:51:49;49.03;;;7.30;;
45848;SDS011;31567;54.600;9.842;2023-11-19T20:55:29;40.85;;;7.78;;
45848;SDS011;31567;54.600;9.842;2023-11-19T20:59:08;44.10;;;7.82;;
45848;SDS011;31567;54.600;9.842;2023-11-19T21:02:48;54.60;;;8.85;;
45848;SDS011;31567;54.600;9.842;2023-11-19T21:06:28;41.90;;;7.57;;
45848;SDS011;31567;54.600;9.842;2023-11-19T21:10:08;51.60;;;8.70;;
45848;SDS011;31567;54.600;9.842;2023-11-19T21:13:51;37.78;;;7.38;;
45848;SDS011;31567;54.600;9.842;2023-11-19T21:17:31;37.58;;;7.57;;
45848;SDS011;31567;54.600;9.842;2023-11-19T21:21:10;48.03;;;8.50;;
45848;SDS011;31567;54.600;9.842;2023-11-19T21:24:50;47.88;;;7.47;;
45848;SDS011;31567;54.600;9.842;2023-11-19T21:28:31;41.60;;;7.68;;
45848;SDS011;31567;54.600;9.842;2023-11-19T21:32:12;42.90;;;7.05;;
45848;SDS011;31567;54.600;9.842;2023-11-19T21:35:51;47.33;;;9.13;;
45848;SDS011;31567;54.600;9.842;2023-11-19T21:39:31;47.45;;;7.60;;
45848;SDS011;31567;54.600;9.842;2023-11-19T21:43:11;36.67;;;6.45;;
45848;SDS011;31567;54.600;9.842;2023-11-19T21:46:51;43.85;;;7.75;;
45848;SDS011;31567;54.600;9.842;2023-11-19T21:50:30;44.53;;;7.97;;
45848;SDS011;31567;54.600;9.842;2023-11-19T21:54:10;46.78;;;8.75;;
45848;SDS011;31567;54.600;9.842;2023-11-19T21:57:50;40.47;;;8.02;;
45848;SDS011;31567;54.600;9.842;2023-11-19T22:01:30;43.00;;;9.57;;
45848;SDS011;31567;54.600;9.842;2023-11-19T22:05:11;44.13;;;9.30;;
45848;SDS011;31567;54.600;9.842;2023-11-19T22:08:52;43.35;;;9.48;;